sensor_id;sensor_type;location;lat;lon;timestamp;P1;durP1;ratioP1;P2;durP2;ratioP2
48215;SDS011;34005;48.844;10.098;2022-12-20T00:00:53;34.55;;;19.00;;
48215;SDS011;34005;48.844;10.098;2022-12-20T00:03:20;37.17;;;19.38;;
48215;SDS011;34005;48.844;10.098;2022-12-20T00:05:48;32.90;;;19.27;;
48215;SDS011;34005;48.844;10.098;2022-12-20T00:08:16;33.63;;;19.65;;
48215;SDS011;34005;48.844;10.098;2022-12-20T00:10:44;31.52;;;18.70;;
48215;SDS011;34005;48.844;10.098;2022-12-20T00:13:11;40.20;;;19.90;;
48215;SDS011;34005;48.844;10.098;2022-12-20T00:15:39;41.08;;;21.48;;
48215;SDS011;34005;48.844;10.098;2022-12-20T00:18:08;37.97;;;21.05;;
48215;SDS011;34005;48.844;10.098;2022-12-20T00:20:36;38.00;;;20.27;;
48215;SDS011;34005;48.844;10.098;2022-12-20T00:23:04;38.20;;;19.20;;
48215;SDS011;34005;48.844;10.098;2022-12-20T00:25:31;37.03;;;20.52;;
48215;SDS011;34005;48.844;10.098;2022-12-20T00:27:59;35.55;;;20.83;;
48215;SDS011;34005;48.844;10.098;2022-12-20T00:30:28;37.58;;;19.20;;
48215;SDS011;34005;48.844;10.098;2022-12-20T00:32:55;34.85;;;20.02;;
48215;SDS011;34005;48.844;10.098;2022-12-20T00:35:24;36.90;;;19.92;;
48215;SDS011;34005;48.844;10.098;2022-12-20T00:37:52;34.90;;;19.25;;
48215;SDS011;34005;48.844;10.098;2022-12-20T00:40:19;36.13;;;20.20;;
48215;SDS011;34005;48.844;10.098;2022-12-20T00:42:47;33.78;;;19.20;;
48215;SDS011;34005;48.844;10.098;2022-12-20T00:45:16;39.00;;;21.90;;
48215;SDS011;34005;48.844;10.098;2022-12-20T00:47:44;32.10;;;18.77;;
48215;SDS011;34005;48.844;10.098;2022-12-20T00:50:12;34.22;;;18.73;;
48215;SDS011;34005;48.844;10.098;2022-12-20T00:52:43;32.83;;;19.05;;
48215;SDS011;34005;48.844;10.098;2022-12-20T00:55:11;31.42;;;18.58;;
48215;SDS011;34005;48.844;10.098;2022-12-20T00:57:38;33.35;;;20.38;;
48215;SDS011;34005;48.844;10.098;2022-12-20T01:00:09;36.15;;;19.55;;
48215;SDS011;34005;48.844;10.098;2022-12-20T01:02:37;36.90;;;19.25;;
48215;SDS011;34005;48.844;10.098;2022-12-20T01:05:05;34.22;;;18.77;;
48215;SDS011;34005;48.844;10.098;2022-12-20T01:07:33;33.33;;;18.48;;
48215;SDS011;34005;48.844;10.098;2022-12-20T01:10:02;36.55;;;20.20;;
48215;SDS011;34005;48.844;10.098;2022-12-20T01:12:30;33.92;;;18.83;;
48215;SDS011;34005;48.844;10.098;2022-12-20T01:14:58;33.70;;;18.95;;
48215;SDS011;34005;48.844;10.098;2022-12-20T01:17:25;35.25;;;19.20;;
48215;SDS011;34005;48.844;10.098;2022-12-20T01:19:53;31.73;;;19.05;;
48215;SDS011;34005;48.844;10.098;2022-12-20T01:22:20;33.70;;;18.40;;
48215;SDS011;34005;48.844;10.098;2022-12-20T01:24:48;30.92;;;18.02;;
48215;SDS011;34005;48.844;10.098;2022-12-20T01:27:17;31.23;;;18.65;;
48215;SDS011;34005;48.844;10.098;2022-12-20T01:29:45;31.50;;;17.75;;
48215;SDS011;34005;48.844;10.098;2022-12-20T01:32:12;31.42;;;19.88;;
48215;SDS011;34005;48.844;10.098;2022-12-20T01:34:40;33.33;;;18.73;;
48215;SDS011;34005;48.844;10.098;2022-12-20T01:37:08;31.20;;;18.17;;
48215;SDS011;34005;48.844;10.098;2022-12-20T01:39:36;32.78;;;17.98;;
48215;SDS011;34005;48.844;10.098;2022-12-20T01:42:04;32.50;;;18.20;;
48215;SDS011;34005;48.844;10.098;2022-12-20T01:44:50;33.42;;;19.17;;
48215;SDS011;34005;48.844;10.098;2022-12-20T01:47:21;26.50;;;16.50;;
48215;SDS011;34005;48.844;10.098;2022-12-20T01:49:50;30.13;;;17.98;;
48215;SDS011;34005;48.844;10.098;2022-12-20T01:52:21;31.95;;;16.98;;
48215;SDS011;34005;48.844;10.098;2022-12-20T01:54:55;29.95;;;17.63;;
48215;SDS011;34005;48.844;10.098;2022-12-20T01:57:31;32.85;;;18.10;;
48215;SDS011;34005;48.844;10.098;2022-12-20T02:00:08;27.73;;;17.15;;
48215;SDS011;34005;48.844;10.098;2022-12-20T02:02:37;31.25;;;17.58;;
48215;SDS011;34005;48.844;10.098;2022-12-20T02:05:05;28.52;;;17.40;;
48215;SDS011;34005;48.844;10.098;2022-12-20T02:07:34;31.38;;;17.92;;
48215;SDS011;34005;48.844;10.098;2022-12-20T02:10:04;30.63;;;19.25;;
48215;SDS011;34005;48.844;10.098;2022-12-20T02:12:36;33.45;;;19.38;;
48215;SDS011;34005;48.844;10.098;2022-12-20T02:15:14;33.17;;;18.33;;
48215;SDS011;34005;48.844;10.098;2022-12-20T02:18:03;31.98;;;17.60;;
48215;SDS011;34005;48.844;10.098;2022-12-20T02:20:44;34.90;;;19.95;;
48215;SDS011;34005;48.844;10.098;2022-12-20T02:23:37;32.45;;;17.40;;
48215;SDS011;34005;48.844;10.098;2022-12-20T02:26:30;28.15;;;17.33;;
48215;SDS011;34005;48.844;10.098;2022-12-20T02:29:19;30.58;;;16.80;;
48215;SDS011;34005;48.844;10.098;2022-12-20T02:31:54;27.08;;;15.80;;
48215;SDS011;34005;48.844;10.098;2022-12-20T02:34:28;27.85;;;17.30;;
48215;SDS011;34005;48.844;10.098;2022-12-20T02:36:58;27.05;;;15.70;;
48215;SDS011;34005;48.844;10.098;2022-12-20T02:39:27;28.25;;;14.95;;
48215;SDS011;34005;48.844;10.098;2022-12-20T02:41:57;25.60;;;14.95;;
48215;SDS011;34005;48.844;10.098;2022-12-20T02:44:31;25.70;;;15.43;;
48215;SDS011;34005;48.844;10.098;2022-12-20T02:47:21;24.75;;;14.18;;
48215;SDS011;34005;48.844;10.098;2022-12-20T02:49:52;26.63;;;14.55;;
48215;SDS011;34005;48.844;10.098;2022-12-20T02:52:22;25.33;;;15.73;;
48215;SDS011;34005;48.844;10.098;2022-12-20T02:54:57;28.83;;;15.05;;
48215;SDS011;34005;48.844;10.098;2022-12-20T02:57:26;24.85;;;14.57;;
48215;SDS011;34005;48.844;10.098;2022-12-20T03:00:03;25.98;;;16.08;;
48215;SDS011;34005;48.844;10.098;2022-12-20T03:02:34;23.67;;;14.98;;
48215;SDS011;34005;48.844;10.098;2022-12-20T03:05:16;25.38;;;15.18;;
48215;SDS011;34005;48.844;10.098;2022-12-20T03:07:46;23.35;;;14.23;;
48215;SDS011;34005;48.844;10.098;2022-12-20T03:10:13;25.92;;;14.80;;
48215;SDS011;34005;48.844;10.098;2022-12-20T03:12:41;24.70;;;14.55;;
48215;SDS011;34005;48.844;10.098;2022-12-20T04:57:33;29.48;;;16.73;;
48215;SDS011;34005;48.844;10.098;2022-12-20T05:01:07;25.27;;;14.77;;
48215;SDS011;34005;48.844;10.098;2022-12-20T05:05:04;23.10;;;13.80;;
48215;SDS011;34005;48.844;10.098;2022-12-20T05:39:55;23.92;;;12.95;;
48215;SDS011;34005;48.844;10.098;2022-12-20T05:42:23;22.13;;;12.80;;
48215;SDS011;34005;48.844;10.098;2022-12-20T05:44:53;22.08;;;14.10;;
48215;SDS011;34005;48.844;10.098;2022-12-20T05:47:22;20.58;;;12.60;;
48215;SDS011;34005;48.844;10.098;2022-12-20T05:49:56;26.25;;;14.35;;
48215;SDS011;34005;48.844;10.098;2022-12-20T06:30:43;23.80;;;13.73;;
48215;SDS011;34005;48.844;10.098;2022-12-20T06:33:12;21.67;;;12.85;;
48215;SDS011;34005;48.844;10.098;2022-12-20T06:35:40;23.92;;;14.00;;
48215;SDS011;34005;48.844;10.098;2022-12-20T06:38:08;25.83;;;13.25;;
48215;SDS011;34005;48.844;10.098;2022-12-20T06:40:35;22.38;;;13.07;;
48215;SDS011;34005;48.844;10.098;2022-12-20T06:43:03;18.48;;;12.05;;
48215;SDS011;34005;48.844;10.098;2022-12-20T06:45:31;21.05;;;11.75;;
48215;SDS011;34005;48.844;10.098;2022-12-20T06:48:08;20.33;;;11.82;;
48215;SDS011;34005;48.844;10.098;2022-12-20T06:50:36;19.35;;;12.57;;
48215;SDS011;34005;48.844;10.098;2022-12-20T06:53:03;21.95;;;13.05;;
48215;SDS011;34005;48.844;10.098;2022-12-20T06:55:31;23.25;;;13.15;;
48215;SDS011;34005;48.844;10.098;2022-12-20T06:57:59;18.92;;;12.20;;
48215;SDS011;34005;48.844;10.098;2022-12-20T07:00:26;22.52;;;12.88;;
48215;SDS011;34005;48.844;10.098;2022-12-20T07:02:54;18.58;;;12.20;;
48215;SDS011;34005;48.844;10.098;2022-12-20T07:05:23;20.55;;;12.20;;
48215;SDS011;34005;48.844;10.098;2022-12-20T07:07:51;17.38;;;11.00;;
48215;SDS011;34005;48.844;10.098;2022-12-20T07:10:19;18.55;;;10.85;;
48215;SDS011;34005;48.844;10.098;2022-12-20T07:12:46;17.98;;;11.43;;
48215;SDS011;34005;48.844;10.098;2022-12-20T07:15:16;19.42;;;12.20;;
48215;SDS011;34005;48.844;10.098;2022-12-20T07:17:44;21.15;;;13.73;;
48215;SDS011;34005;48.844;10.098;2022-12-20T07:20:11;26.25;;;13.90;;
48215;SDS011;34005;48.844;10.098;2022-12-20T07:22:41;22.08;;;12.57;;
48215;SDS011;34005;48.844;10.098;2022-12-20T07:25:09;23.73;;;13.45;;
48215;SDS011;34005;48.844;10.098;2022-12-20T07:27:37;18.83;;;10.80;;
48215;SDS011;34005;48.844;10.098;2022-12-20T07:30:05;21.42;;;12.40;;
48215;SDS011;34005;48.844;10.098;2022-12-20T07:32:34;19.45;;;11.88;;
48215;SDS011;34005;48.844;10.098;2022-12-20T07:35:01;19.88;;;11.10;;
48215;SDS011;34005;48.844;10.098;2022-12-20T07:37:30;17.95;;;11.70;;
48215;SDS011;34005;48.844;10.098;2022-12-20T07:39:59;18.35;;;11.00;;
48215;SDS011;34005;48.844;10.098;2022-12-20T07:42:27;17.23;;;10.82;;
48215;SDS011;34005;48.844;10.098;2022-12-20T07:45:03;19.02;;;11.15;;
48215;SDS011;34005;48.844;10.098;2022-12-20T07:47:31;17.65;;;10.40;;
48215;SDS011;34005;48.844;10.098;2022-12-20T07:50:00;15.80;;;9.77;;
48215;SDS011;34005;48.844;10.098;2022-12-20T07:52:28;14.73;;;9.75;;
48215;SDS011;34005;48.844;10.098;2022-12-20T07:55:02;16.70;;;10.93;;
48215;SDS011;34005;48.844;10.098;2022-12-20T08:00:03;14.82;;;9.60;;
48215;SDS011;34005;48.844;10.098;2022-12-20T08:02:34;15.35;;;9.18;;
48215;SDS011;34005;48.844;10.098;2022-12-20T08:07:34;13.90;;;9.32;;
48215;SDS011;34005;48.844;10.098;2022-12-20T08:10:06;15.13;;;9.93;;
48215;SDS011;34005;48.844;10.098;2022-12-20T08:15:06;13.60;;;8.85;;
48215;SDS011;34005;48.844;10.098;2022-12-20T08:17:34;14.55;;;10.18;;
48215;SDS011;34005;48.844;10.098;2022-12-20T08:20:02;19.45;;;12.00;;
48215;SDS011;34005;48.844;10.098;2022-12-20T08:22:32;18.85;;;10.05;;
48215;SDS011;34005;48.844;10.098;2022-12-20T08:24:59;19.02;;;9.90;;
48215;SDS011;34005;48.844;10.098;2022-12-20T08:27:28;16.58;;;8.77;;
48215;SDS011;34005;48.844;10.098;2022-12-20T08:29:56;14.00;;;8.55;;
48215;SDS011;34005;48.844;10.098;2022-12-20T08:32:24;12.07;;;8.68;;
48215;SDS011;34005;48.844;10.098;2022-12-20T08:34:52;12.10;;;7.65;;
48215;SDS011;34005;48.844;10.098;2022-12-20T08:37:20;15.40;;;9.70;;
48215;SDS011;34005;48.844;10.098;2022-12-20T08:39:48;12.70;;;7.78;;
48215;SDS011;34005;48.844;10.098;2022-12-20T08:42:16;13.10;;;8.27;;
48215;SDS011;34005;48.844;10.098;2022-12-20T08:44:45;15.45;;;9.63;;
48215;SDS011;34005;48.844;10.098;2022-12-20T08:47:13;14.05;;;8.63;;
48215;SDS011;34005;48.844;10.098;2022-12-20T08:49:41;11.55;;;8.43;;
48215;SDS011;34005;48.844;10.098;2022-12-20T08:52:13;11.20;;;7.57;;
48215;SDS011;34005;48.844;10.098;2022-12-20T08:54:41;15.55;;;9.98;;
48215;SDS011;34005;48.844;10.098;2022-12-20T08:57:09;14.63;;;8.98;;
48215;SDS011;34005;48.844;10.098;2022-12-20T08:59:37;10.65;;;7.38;;
48215;SDS011;34005;48.844;10.098;2022-12-20T09:02:06;10.85;;;7.25;;
48215;SDS011;34005;48.844;10.098;2022-12-20T09:04:34;14.20;;;8.75;;
48215;SDS011;34005;48.844;10.098;2022-12-20T09:07:02;12.77;;;8.90;;
48215;SDS011;34005;48.844;10.098;2022-12-20T09:09:30;13.10;;;8.50;;
48215;SDS011;34005;48.844;10.098;2022-12-20T09:11:57;12.50;;;8.13;;
48215;SDS011;34005;48.844;10.098;2022-12-20T09:14:25;14.93;;;8.75;;
48215;SDS011;34005;48.844;10.098;2022-12-20T09:16:53;13.63;;;9.02;;
48215;SDS011;34005;48.844;10.098;2022-12-20T09:19:22;11.98;;;7.90;;
48215;SDS011;34005;48.844;10.098;2022-12-20T09:21:50;14.50;;;9.02;;
48215;SDS011;34005;48.844;10.098;2022-12-20T09:24:18;13.50;;;8.32;;
48215;SDS011;34005;48.844;10.098;2022-12-20T09:26:46;13.43;;;8.13;;
48215;SDS011;34005;48.844;10.098;2022-12-20T09:29:17;14.27;;;8.77;;
48215;SDS011;34005;48.844;10.098;2022-12-20T09:31:54;12.80;;;8.63;;
48215;SDS011;34005;48.844;10.098;2022-12-20T09:34:24;12.90;;;8.50;;
48215;SDS011;34005;48.844;10.098;2022-12-20T09:36:52;12.95;;;8.70;;
48215;SDS011;34005;48.844;10.098;2022-12-20T09:39:20;14.55;;;9.57;;
48215;SDS011;34005;48.844;10.098;2022-12-20T09:41:48;14.77;;;10.10;;
48215;SDS011;34005;48.844;10.098;2022-12-20T09:44:17;13.60;;;9.65;;
48215;SDS011;34005;48.844;10.098;2022-12-20T09:46:51;14.00;;;8.75;;
48215;SDS011;34005;48.844;10.098;2022-12-20T09:49:21;14.32;;;9.18;;
48215;SDS011;34005;48.844;10.098;2022-12-20T09:54:39;13.88;;;9.25;;
48215;SDS011;34005;48.844;10.098;2022-12-20T09:57:14;13.82;;;8.95;;
48215;SDS011;34005;48.844;10.098;2022-12-20T09:59:50;11.75;;;8.40;;
48215;SDS011;34005;48.844;10.098;2022-12-20T10:02:19;15.20;;;8.18;;
48215;SDS011;34005;48.844;10.098;2022-12-20T10:05:13;15.05;;;8.95;;
48215;SDS011;34005;48.844;10.098;2022-12-20T10:07:48;12.00;;;8.30;;
48215;SDS011;34005;48.844;10.098;2022-12-20T10:10:40;13.52;;;9.10;;
48215;SDS011;34005;48.844;10.098;2022-12-20T10:16:06;10.57;;;7.82;;
48215;SDS011;34005;48.844;10.098;2022-12-20T10:19:22;11.10;;;8.13;;
48215;SDS011;34005;48.844;10.098;2022-12-20T10:22:08;13.60;;;7.97;;
48215;SDS011;34005;48.844;10.098;2022-12-20T10:24:43;12.65;;;8.38;;
48215;SDS011;34005;48.844;10.098;2022-12-20T10:27:19;13.15;;;8.10;;
48215;SDS011;34005;48.844;10.098;2022-12-20T10:30:01;12.57;;;8.20;;
48215;SDS011;34005;48.844;10.098;2022-12-20T10:32:37;13.10;;;9.15;;
48215;SDS011;34005;48.844;10.098;2022-12-20T10:35:15;13.30;;;8.73;;
48215;SDS011;34005;48.844;10.098;2022-12-20T10:40:36;11.25;;;7.75;;
48215;SDS011;34005;48.844;10.098;2022-12-20T10:43:26;13.88;;;8.40;;
48215;SDS011;34005;48.844;10.098;2022-12-20T10:45:55;12.48;;;8.60;;
48215;SDS011;34005;48.844;10.098;2022-12-20T10:48:28;14.95;;;9.07;;
48215;SDS011;34005;48.844;10.098;2022-12-20T10:51:01;12.25;;;8.73;;
48215;SDS011;34005;48.844;10.098;2022-12-20T10:53:51;16.23;;;8.65;;
48215;SDS011;34005;48.844;10.098;2022-12-20T10:56:22;16.73;;;10.35;;
48215;SDS011;34005;48.844;10.098;2022-12-20T10:58:55;14.75;;;9.60;;
48215;SDS011;34005;48.844;10.098;2022-12-20T11:01:28;13.75;;;9.35;;
48215;SDS011;34005;48.844;10.098;2022-12-20T11:04:05;13.93;;;9.80;;
48215;SDS011;34005;48.844;10.098;2022-12-20T11:07:00;14.00;;;9.77;;
48215;SDS011;34005;48.844;10.098;2022-12-20T11:09:53;12.73;;;9.77;;
48215;SDS011;34005;48.844;10.098;2022-12-20T11:12:23;14.73;;;10.15;;
48215;SDS011;34005;48.844;10.098;2022-12-20T11:15:06;13.80;;;9.65;;
48215;SDS011;34005;48.844;10.098;2022-12-20T11:17:39;15.00;;;9.98;;
48215;SDS011;34005;48.844;10.098;2022-12-20T11:20:27;14.52;;;9.75;;
48215;SDS011;34005;48.844;10.098;2022-12-20T11:23:08;16.88;;;10.65;;
48215;SDS011;34005;48.844;10.098;2022-12-20T11:25:55;17.38;;;11.27;;
48215;SDS011;34005;48.844;10.098;2022-12-20T11:28:39;17.40;;;12.20;;
48215;SDS011;34005;48.844;10.098;2022-12-20T11:31:24;20.00;;;12.32;;
48215;SDS011;34005;48.844;10.098;2022-12-20T11:34:02;19.63;;;13.18;;
48215;SDS011;34005;48.844;10.098;2022-12-20T11:36:48;17.63;;;11.27;;
48215;SDS011;34005;48.844;10.098;2022-12-20T11:39:50;22.13;;;12.55;;
48215;SDS011;34005;48.844;10.098;2022-12-20T11:42:37;20.95;;;13.30;;
48215;SDS011;34005;48.844;10.098;2022-12-20T11:45:22;24.95;;;14.02;;
48215;SDS011;34005;48.844;10.098;2022-12-20T11:48:07;23.83;;;13.40;;
48215;SDS011;34005;48.844;10.098;2022-12-20T11:50:58;30.20;;;15.20;;
48215;SDS011;34005;48.844;10.098;2022-12-20T11:53:42;21.92;;;13.10;;
48215;SDS011;34005;48.844;10.098;2022-12-20T11:56:17;27.48;;;13.82;;
48215;SDS011;34005;48.844;10.098;2022-12-20T12:01:39;20.27;;;12.88;;
48215;SDS011;34005;48.844;10.098;2022-12-20T12:04:20;20.25;;;13.02;;
48215;SDS011;34005;48.844;10.098;2022-12-20T12:06:57;16.75;;;11.32;;
48215;SDS011;34005;48.844;10.098;2022-12-20T12:09:35;20.52;;;12.38;;
48215;SDS011;34005;48.844;10.098;2022-12-20T12:12:13;20.02;;;13.25;;
48215;SDS011;34005;48.844;10.098;2022-12-20T12:14:54;20.73;;;12.77;;
48215;SDS011;34005;48.844;10.098;2022-12-20T12:17:30;21.40;;;13.20;;
48215;SDS011;34005;48.844;10.098;2022-12-20T12:20:19;20.17;;;12.85;;
48215;SDS011;34005;48.844;10.098;2022-12-20T12:22:54;19.27;;;12.77;;
48215;SDS011;34005;48.844;10.098;2022-12-20T12:25:37;20.27;;;12.50;;
48215;SDS011;34005;48.844;10.098;2022-12-20T12:28:08;17.73;;;11.90;;
48215;SDS011;34005;48.844;10.098;2022-12-20T12:30:42;22.23;;;14.13;;
48215;SDS011;34005;48.844;10.098;2022-12-20T12:33:25;18.05;;;12.35;;
48215;SDS011;34005;48.844;10.098;2022-12-20T12:39:38;21.83;;;13.43;;
48215;SDS011;34005;48.844;10.098;2022-12-20T12:42:57;21.98;;;13.68;;
48215;SDS011;34005;48.844;10.098;2022-12-20T12:45:40;19.38;;;12.75;;
48215;SDS011;34005;48.844;10.098;2022-12-20T12:48:17;17.95;;;12.75;;
48215;SDS011;34005;48.844;10.098;2022-12-20T12:51:04;20.30;;;13.18;;
48215;SDS011;34005;48.844;10.098;2022-12-20T12:53:41;19.65;;;13.88;;
48215;SDS011;34005;48.844;10.098;2022-12-20T12:59:23;18.60;;;12.90;;
48215;SDS011;34005;48.844;10.098;2022-12-20T13:05:35;22.17;;;12.75;;
48215;SDS011;34005;48.844;10.098;2022-12-20T13:08:23;17.98;;;12.73;;
48215;SDS011;34005;48.844;10.098;2022-12-20T13:11:29;17.88;;;11.88;;
48215;SDS011;34005;48.844;10.098;2022-12-20T13:14:10;19.80;;;13.07;;
48215;SDS011;34005;48.844;10.098;2022-12-20T13:16:48;18.60;;;12.52;;
48215;SDS011;34005;48.844;10.098;2022-12-20T13:19:38;21.70;;;13.43;;
48215;SDS011;34005;48.844;10.098;2022-12-20T13:22:20;22.02;;;14.38;;
48215;SDS011;34005;48.844;10.098;2022-12-20T13:25:00;19.50;;;14.05;;
48215;SDS011;34005;48.844;10.098;2022-12-20T13:33:59;20.17;;;14.48;;
48215;SDS011;34005;48.844;10.098;2022-12-20T13:36:34;18.63;;;12.55;;
48215;SDS011;34005;48.844;10.098;2022-12-20T13:39:30;23.25;;;14.00;;
48215;SDS011;34005;48.844;10.098;2022-12-20T13:42:18;20.17;;;13.02;;
48215;SDS011;34005;48.844;10.098;2022-12-20T13:45:02;19.77;;;13.68;;
48215;SDS011;34005;48.844;10.098;2022-12-20T13:47:47;22.38;;;15.55;;
48215;SDS011;34005;48.844;10.098;2022-12-20T13:50:29;24.55;;;14.40;;
48215;SDS011;34005;48.844;10.098;2022-12-20T13:53:27;23.13;;;14.90;;
48215;SDS011;34005;48.844;10.098;2022-12-20T13:59:13;23.13;;;13.60;;
48215;SDS011;34005;48.844;10.098;2022-12-20T14:04:28;22.33;;;13.82;;
48215;SDS011;34005;48.844;10.098;2022-12-20T14:07:22;22.98;;;13.00;;
48215;SDS011;34005;48.844;10.098;2022-12-20T14:12:52;17.70;;;13.05;;
48215;SDS011;34005;48.844;10.098;2022-12-20T14:15:31;20.35;;;13.57;;
48215;SDS011;34005;48.844;10.098;2022-12-20T14:18:05;21.35;;;13.77;;
48215;SDS011;34005;48.844;10.098;2022-12-20T14:20:57;20.43;;;13.57;;
48215;SDS011;34005;48.844;10.098;2022-12-20T14:23:40;21.48;;;12.80;;
48215;SDS011;34005;48.844;10.098;2022-12-20T14:26:23;22.33;;;13.30;;
48215;SDS011;34005;48.844;10.098;2022-12-20T14:28:57;22.20;;;14.30;;
48215;SDS011;34005;48.844;10.098;2022-12-20T14:31:36;24.25;;;15.05;;
48215;SDS011;34005;48.844;10.098;2022-12-20T14:34:13;20.42;;;13.25;;
48215;SDS011;34005;48.844;10.098;2022-12-20T14:40:20;22.00;;;15.05;;
48215;SDS011;34005;48.844;10.098;2022-12-20T14:42:51;25.48;;;16.33;;
48215;SDS011;34005;48.844;10.098;2022-12-20T14:45:25;22.35;;;15.65;;
48215;SDS011;34005;48.844;10.098;2022-12-20T14:48:02;22.80;;;14.27;;
48215;SDS011;34005;48.844;10.098;2022-12-20T14:50:40;24.80;;;16.85;;
48215;SDS011;34005;48.844;10.098;2022-12-20T14:53:28;21.67;;;15.05;;
48215;SDS011;34005;48.844;10.098;2022-12-20T14:55:59;25.77;;;15.20;;
48215;SDS011;34005;48.844;10.098;2022-12-20T14:58:31;22.92;;;15.77;;
48215;SDS011;34005;48.844;10.098;2022-12-20T15:01:15;19.88;;;14.90;;
48215;SDS011;34005;48.844;10.098;2022-12-20T15:06:43;22.60;;;16.88;;
48215;SDS011;34005;48.844;10.098;2022-12-20T15:09:18;21.90;;;14.90;;
48215;SDS011;34005;48.844;10.098;2022-12-20T15:11:49;24.10;;;14.95;;
48215;SDS011;34005;48.844;10.098;2022-12-20T15:14:31;19.58;;;14.70;;
48215;SDS011;34005;48.844;10.098;2022-12-20T15:17:12;19.08;;;14.10;;
48215;SDS011;34005;48.844;10.098;2022-12-20T15:19:42;22.23;;;14.50;;
48215;SDS011;34005;48.844;10.098;2022-12-20T15:22:12;23.42;;;14.60;;
48215;SDS011;34005;48.844;10.098;2022-12-20T15:24:42;24.15;;;15.48;;
48215;SDS011;34005;48.844;10.098;2022-12-20T15:27:11;21.63;;;15.07;;
48215;SDS011;34005;48.844;10.098;2022-12-20T15:29:40;21.15;;;15.23;;
48215;SDS011;34005;48.844;10.098;2022-12-20T15:32:13;22.83;;;14.55;;
48215;SDS011;34005;48.844;10.098;2022-12-20T15:34:55;23.02;;;15.52;;
48215;SDS011;34005;48.844;10.098;2022-12-20T15:37:23;24.20;;;15.77;;
48215;SDS011;34005;48.844;10.098;2022-12-20T15:39:51;22.70;;;15.10;;
48215;SDS011;34005;48.844;10.098;2022-12-20T15:42:20;24.88;;;14.32;;
48215;SDS011;34005;48.844;10.098;2022-12-20T15:44:50;23.52;;;15.70;;
48215;SDS011;34005;48.844;10.098;2022-12-20T15:47:18;22.27;;;14.63;;
48215;SDS011;34005;48.844;10.098;2022-12-20T15:49:47;22.70;;;15.88;;
48215;SDS011;34005;48.844;10.098;2022-12-20T15:52:19;26.15;;;15.85;;
48215;SDS011;34005;48.844;10.098;2022-12-20T15:54:49;21.40;;;15.32;;
48215;SDS011;34005;48.844;10.098;2022-12-20T15:57:17;22.85;;;15.75;;
48215;SDS011;34005;48.844;10.098;2022-12-20T15:59:46;22.60;;;16.23;;
48215;SDS011;34005;48.844;10.098;2022-12-20T16:02:28;25.02;;;15.73;;
48215;SDS011;34005;48.844;10.098;2022-12-20T16:04:57;23.10;;;14.20;;
48215;SDS011;34005;48.844;10.098;2022-12-20T16:07:28;21.08;;;13.65;;
48215;SDS011;34005;48.844;10.098;2022-12-20T16:09:56;23.50;;;15.38;;
48215;SDS011;34005;48.844;10.098;2022-12-20T16:12:26;20.02;;;13.98;;
48215;SDS011;34005;48.844;10.098;2022-12-20T16:14:56;21.42;;;15.35;;
48215;SDS011;34005;48.844;10.098;2022-12-20T16:17:25;21.38;;;14.23;;
48215;SDS011;34005;48.844;10.098;2022-12-20T16:19:53;27.75;;;16.30;;
48215;SDS011;34005;48.844;10.098;2022-12-20T16:22:21;22.10;;;14.80;;
48215;SDS011;34005;48.844;10.098;2022-12-20T16:24:53;21.98;;;15.20;;
48215;SDS011;34005;48.844;10.098;2022-12-20T16:27:21;24.40;;;16.13;;
48215;SDS011;34005;48.844;10.098;2022-12-20T16:29:49;27.15;;;17.02;;
48215;SDS011;34005;48.844;10.098;2022-12-20T16:32:18;21.85;;;14.85;;
48215;SDS011;34005;48.844;10.098;2022-12-20T16:34:48;23.70;;;15.50;;
48215;SDS011;34005;48.844;10.098;2022-12-20T16:37:16;22.73;;;15.55;;
48215;SDS011;34005;48.844;10.098;2022-12-20T16:39:45;24.73;;;16.08;;
48215;SDS011;34005;48.844;10.098;2022-12-20T16:42:16;30.55;;;18.52;;
48215;SDS011;34005;48.844;10.098;2022-12-20T16:44:49;27.10;;;17.60;;
48215;SDS011;34005;48.844;10.098;2022-12-20T16:47:18;25.27;;;17.25;;
48215;SDS011;34005;48.844;10.098;2022-12-20T16:49:46;26.58;;;16.48;;
48215;SDS011;34005;48.844;10.098;2022-12-20T16:52:19;26.90;;;15.90;;
48215;SDS011;34005;48.844;10.098;2022-12-20T16:54:49;22.80;;;15.90;;
48215;SDS011;34005;48.844;10.098;2022-12-20T16:57:19;25.73;;;16.38;;
48215;SDS011;34005;48.844;10.098;2022-12-20T16:59:47;28.23;;;17.88;;
48215;SDS011;34005;48.844;10.098;2022-12-20T17:02:18;28.58;;;17.63;;
48215;SDS011;34005;48.844;10.098;2022-12-20T17:04:50;30.23;;;18.95;;
48215;SDS011;34005;48.844;10.098;2022-12-20T17:07:18;28.77;;;18.77;;
48215;SDS011;34005;48.844;10.098;2022-12-20T17:09:46;31.70;;;19.67;;
48215;SDS011;34005;48.844;10.098;2022-12-20T17:12:33;28.23;;;18.48;;
48215;SDS011;34005;48.844;10.098;2022-12-20T17:15:02;25.95;;;16.95;;
48215;SDS011;34005;48.844;10.098;2022-12-20T17:17:30;27.45;;;16.92;;
48215;SDS011;34005;48.844;10.098;2022-12-20T17:19:59;28.75;;;17.60;;
48215;SDS011;34005;48.844;10.098;2022-12-20T17:22:27;32.95;;;16.98;;
48215;SDS011;34005;48.844;10.098;2022-12-20T17:24:55;26.83;;;17.20;;
48215;SDS011;34005;48.844;10.098;2022-12-20T17:27:23;27.27;;;16.98;;
48215;SDS011;34005;48.844;10.098;2022-12-20T17:29:53;29.55;;;17.85;;
48215;SDS011;34005;48.844;10.098;2022-12-20T17:32:22;28.88;;;17.83;;
48215;SDS011;34005;48.844;10.098;2022-12-20T17:34:53;22.50;;;15.38;;
48215;SDS011;34005;48.844;10.098;2022-12-20T17:37:21;25.58;;;16.27;;
48215;SDS011;34005;48.844;10.098;2022-12-20T17:39:50;25.90;;;16.80;;
48215;SDS011;34005;48.844;10.098;2022-12-20T17:42:18;24.20;;;14.38;;
48215;SDS011;34005;48.844;10.098;2022-12-20T17:44:55;27.73;;;18.08;;
48215;SDS011;34005;48.844;10.098;2022-12-20T17:47:23;26.33;;;16.13;;
48215;SDS011;34005;48.844;10.098;2022-12-20T17:49:52;23.65;;;15.68;;
48215;SDS011;34005;48.844;10.098;2022-12-20T17:52:20;25.38;;;16.88;;
48215;SDS011;34005;48.844;10.098;2022-12-20T17:54:48;22.77;;;15.40;;
48215;SDS011;34005;48.844;10.098;2022-12-20T17:57:16;30.25;;;14.10;;
48215;SDS011;34005;48.844;10.098;2022-12-20T17:59:44;20.95;;;14.38;;
48215;SDS011;34005;48.844;10.098;2022-12-20T18:02:20;23.00;;;13.52;;
48215;SDS011;34005;48.844;10.098;2022-12-20T18:04:50;19.98;;;13.48;;
48215;SDS011;34005;48.844;10.098;2022-12-20T18:07:19;18.23;;;13.07;;
48215;SDS011;34005;48.844;10.098;2022-12-20T18:09:47;22.13;;;13.73;;
48215;SDS011;34005;48.844;10.098;2022-12-20T18:12:15;23.52;;;13.90;;
48215;SDS011;34005;48.844;10.098;2022-12-20T18:14:46;23.52;;;13.48;;
48215;SDS011;34005;48.844;10.098;2022-12-20T18:17:14;23.52;;;13.38;;
48215;SDS011;34005;48.844;10.098;2022-12-20T18:19:45;19.67;;;12.57;;
48215;SDS011;34005;48.844;10.098;2022-12-20T18:22:13;20.92;;;13.52;;
48215;SDS011;34005;48.844;10.098;2022-12-20T18:24:41;21.40;;;13.10;;
48215;SDS011;34005;48.844;10.098;2022-12-20T18:27:09;20.15;;;14.05;;
48215;SDS011;34005;48.844;10.098;2022-12-20T18:29:38;19.38;;;13.23;;
48215;SDS011;34005;48.844;10.098;2022-12-20T21:19:36;11.48;;;8.77;;